createdAt,value
2018-12-30T00:00:00.261Z,9.30
2018-12-30T00:01:04.706Z,9.30
2018-12-30T00:03:12.527Z,9.30
2018-12-30T00:10:37.534Z,9.30
2018-12-30T00:13:48.687Z,9.20
2018-12-30T00:15:56.993Z,9.30
2018-12-30T00:21:15.958Z,9.20
2018-12-30T00:24:27.129Z,9.20
2018-12-30T00:26:34.909Z,9.20
2018-12-30T00:28:42.689Z,9.20
2018-12-30T00:31:53.844Z,9.20
2018-12-30T00:32:58.253Z,9.20
2018-12-30T00:34:02.677Z,9.20
2018-12-30T00:35:07.088Z,9.20
2018-12-30T00:38:18.248Z,9.20
2018-12-30T00:42:32.852Z,9.10
2018-12-30T00:45:43.997Z,9.20
2018-12-30T00:51:01.879Z,9.10
2018-12-30T00:52:06.278Z,9.10
2018-12-30T00:54:14.069Z,9.10
2018-12-30T00:56:21.840Z,9.10
2018-12-30T00:59:32.976Z,9.10
2018-12-30T01:00:37.568Z,9.10
2018-12-30T01:01:42.275Z,9.10
2018-12-30T01:02:46.670Z,9.10
2018-12-30T01:03:52.546Z,9.10
2018-12-30T01:06:00.363Z,9.10
2018-12-30T01:08:08.109Z,9.00
2018-12-30T01:09:12.500Z,9.00
2018-12-30T01:15:33.875Z,9.00
2018-12-30T01:19:48.392Z,9.00
2018-12-30T01:20:52.800Z,8.90
2018-12-30T01:21:57.197Z,8.90
2018-12-30T01:25:08.329Z,8.90
2018-12-30T01:27:16.165Z,8.90
2018-12-30T01:28:20.560Z,8.90
2018-12-30T01:29:24.961Z,8.90
2018-12-30T01:31:32.741Z,8.90
2018-12-30T01:36:50.633Z,8.90
2018-12-30T01:37:55.036Z,8.90
2018-12-30T01:38:59.431Z,8.90
2018-12-30T01:40:04.653Z,8.90
2018-12-30T01:42:12.436Z,8.80
2018-12-30T01:43:17.869Z,8.80
2018-12-30T01:45:25.656Z,8.80
2018-12-30T01:48:36.781Z,8.80
2018-12-30T01:50:44.558Z,8.80
2018-12-30T01:51:48.949Z,8.80
2018-12-30T01:53:56.950Z,8.70
2018-12-30T01:56:05.365Z,8.70
2018-12-30T01:57:09.769Z,8.70
2018-12-30T01:58:14.155Z,8.70
2018-12-30T02:02:28.669Z,8.70
2018-12-30T02:03:33.064Z,8.70
2018-12-30T02:10:57.719Z,8.60
2018-12-30T02:12:02.307Z,8.70
2018-12-30T02:14:10.186Z,8.70
2018-12-30T02:16:18.068Z,8.70
2018-12-30T02:17:22.463Z,8.70
2018-12-30T02:20:33.612Z,8.70
2018-12-30T02:21:41.213Z,8.70
2018-12-30T02:22:44.232Z,8.70
2018-12-30T02:24:52.002Z,8.70
2018-12-30T02:25:56.412Z,8.70
2018-12-30T02:27:00.547Z,8.70
2018-12-30T02:28:05.061Z,8.70
2018-12-30T02:29:09.472Z,8.70
2018-12-30T02:30:13.884Z,8.70
2018-12-30T02:34:28.712Z,8.70
2018-12-30T02:35:33.811Z,8.70
2018-12-30T02:37:41.580Z,8.70
2018-12-30T02:39:49.352Z,8.70
2018-12-30T02:43:00.486Z,8.70
2018-12-30T02:44:04.869Z,8.70
2018-12-30T02:45:09.280Z,8.70
2018-12-30T02:49:23.792Z,8.70
2018-12-30T02:52:35.134Z,8.70
2018-12-30T02:57:54.053Z,8.60
2018-12-30T03:01:05.190Z,8.60
2018-12-30T03:04:16.343Z,8.60
2018-12-30T03:06:24.176Z,8.60
2018-12-30T03:07:28.569Z,8.60
2018-12-30T03:09:36.091Z,8.60
2018-12-30T03:10:40.779Z,8.60
2018-12-30T03:11:45.270Z,8.60
2018-12-30T03:12:49.656Z,8.60
2018-12-30T03:14:57.433Z,8.60
2018-12-30T03:16:01.835Z,8.60
2018-12-30T03:18:09.606Z,8.60
2018-12-30T03:20:17.380Z,8.60
2018-12-30T03:21:21.768Z,8.60
2018-12-30T03:23:29.292Z,8.50
2018-12-30T03:26:40.190Z,8.50
2018-12-30T03:27:44.567Z,8.50
2018-12-30T03:31:58.849Z,8.50
2018-12-30T03:35:09.819Z,8.50
2018-12-30T03:38:21.761Z,8.70
2018-12-30T03:41:32.671Z,8.40
2018-12-30T03:43:40.191Z,8.40
2018-12-30T03:44:44.454Z,8.40
2018-12-30T03:46:52.042Z,8.40
2018-12-30T03:47:56.191Z,8.40
2018-12-30T03:50:03.723Z,8.40
2018-12-30T03:53:14.703Z,8.40
2018-12-30T03:55:22.229Z,8.40
2018-12-30T03:58:33.119Z,8.30
2018-12-30T03:59:37.281Z,8.30
2018-12-30T04:00:41.441Z,8.40
2018-12-30T04:07:02.444Z,8.40
2018-12-30T04:08:06.603Z,8.40
2018-12-30T04:10:14.720Z,8.40
2018-12-30T04:11:19.114Z,8.40
2018-12-30T04:14:30.006Z,8.40
2018-12-30T04:16:37.543Z,8.40
2018-12-30T04:17:41.676Z,8.40
2018-12-30T04:22:59.322Z,8.50
2018-12-30T04:28:16.960Z,8.50
2018-12-30T04:29:22.130Z,8.50
2018-12-30T04:30:26.302Z,8.50
2018-12-30T04:32:33.822Z,8.50
2018-12-30T04:33:37.973Z,8.60
2018-12-30T04:34:42.112Z,8.60
2018-12-30T04:35:46.265Z,8.60
2018-12-30T04:37:53.785Z,8.60
2018-12-30T04:40:01.306Z,8.60
2018-12-30T04:41:05.467Z,8.60
2018-12-30T04:42:09.608Z,8.60
2018-12-30T04:43:13.796Z,8.60
2018-12-30T04:48:31.452Z,8.60
2018-12-30T04:49:35.601Z,8.60
2018-12-30T04:50:40.142Z,8.60
2018-12-30T04:51:44.480Z,8.60
2018-12-30T04:53:52.005Z,8.60
2018-12-30T04:54:56.164Z,8.60
2018-12-30T04:56:00.319Z,8.60
2018-12-30T04:57:04.463Z,8.60
2018-12-30T05:02:22.209Z,8.70
2018-12-30T05:03:26.348Z,8.70
2018-12-30T05:04:30.509Z,8.70
2018-12-30T05:05:34.665Z,8.70
2018-12-30T05:06:39.318Z,8.70
2018-12-30T05:07:43.436Z,8.70
2018-12-30T05:10:54.337Z,8.70
2018-12-30T05:18:18.717Z,8.70
2018-12-30T05:19:22.887Z,8.70
2018-12-30T05:23:37.221Z,8.70
2018-12-30T05:26:48.298Z,8.70
2018-12-30T05:27:52.465Z,8.70
2018-12-30T05:29:59.973Z,8.70
2018-12-30T05:31:04.133Z,8.70
2018-12-30T05:32:08.273Z,8.70
2018-12-30T05:39:32.694Z,8.70
2018-12-30T05:42:43.832Z,8.70
2018-12-30T05:43:50.465Z,8.70
2018-12-30T05:47:01.444Z,8.70
2018-12-30T05:48:05.602Z,8.70
2018-12-30T05:55:31.127Z,8.70
2018-12-30T05:56:35.240Z,8.70
2018-12-30T05:57:39.380Z,8.70
2018-12-30T05:58:43.550Z,8.70
2018-12-30T05:59:47.688Z,8.70
2018-12-30T06:00:51.864Z,8.70
2018-12-30T06:05:06.219Z,8.70
2018-12-30T06:09:21.508Z,8.70
2018-12-30T06:11:29.045Z,8.70
2018-12-30T06:13:36.575Z,8.70
2018-12-30T06:15:44.094Z,8.70
2018-12-30T06:18:55.033Z,8.70
2018-12-30T06:19:59.165Z,8.70
2018-12-30T06:21:03.307Z,8.70
2018-12-30T06:22:07.473Z,8.70
2018-12-30T06:23:11.622Z,8.70
2018-12-30T06:25:19.157Z,8.70
2018-12-30T06:26:23.648Z,8.70
2018-12-30T06:28:31.186Z,8.70
2018-12-30T06:29:35.352Z,8.70
2018-12-30T06:31:42.876Z,8.70
2018-12-30T06:37:00.523Z,8.70
2018-12-30T06:38:04.708Z,8.70
2018-12-30T06:39:09.061Z,8.70
2018-12-30T06:40:13.209Z,8.70
2018-12-30T06:46:34.215Z,8.60
2018-12-30T06:48:41.996Z,8.60
2018-12-30T06:51:52.898Z,8.60
2018-12-30T06:52:57.718Z,8.80
2018-12-30T06:54:02.440Z,8.60
2018-12-30T06:59:20.169Z,8.60
2018-12-30T07:00:24.297Z,8.60
2018-12-30T07:01:28.458Z,8.60
2018-12-30T07:03:35.985Z,8.60
2018-12-30T07:07:50.253Z,8.60
2018-12-30T07:09:58.037Z,8.60
2018-12-30T07:12:05.556Z,8.60
2018-12-30T07:13:09.721Z,8.60
2018-12-30T07:14:13.875Z,8.60
2018-12-30T07:17:24.979Z,8.60
2018-12-30T07:18:29.079Z,8.60
2018-12-30T07:21:39.968Z,8.60
2018-12-30T07:28:00.998Z,8.60
2018-12-30T07:31:11.885Z,8.60
2018-12-30T07:35:26.725Z,8.60
2018-12-30T07:37:34.349Z,8.60
2018-12-30T07:38:38.496Z,8.60
2018-12-30T07:41:50.421Z,8.60
2018-12-30T07:43:57.949Z,8.60
2018-12-30T07:46:05.463Z,8.60
2018-12-30T07:47:09.743Z,8.60
2018-12-30T07:52:27.380Z,8.60
2018-12-30T07:58:48.394Z,8.60
2018-12-30T08:03:02.658Z,8.60
2018-12-30T08:08:20.823Z,8.60
2018-12-30T08:10:28.343Z,8.60
2018-12-30T08:12:35.882Z,8.60
2018-12-30T08:13:40.041Z,8.70
2018-12-30T08:15:48.960Z,8.70
2018-12-30T08:16:53.463Z,8.70
2018-12-30T08:20:05.938Z,8.70
2018-12-30T08:23:21.436Z,8.80
2018-12-30T08:25:26.366Z,8.80
2018-12-30T08:26:30.508Z,8.90
2018-12-30T08:29:41.423Z,9.00
2018-12-30T08:38:09.188Z,9.10
2018-12-30T08:39:13.633Z,9.00
2018-12-30T08:40:17.753Z,9.00
2018-12-30T08:42:25.341Z,9.10
2018-12-30T08:45:36.240Z,9.10
2018-12-30T08:47:44.020Z,9.00
2018-12-30T08:55:09.031Z,9.10
2018-12-30T08:58:20.001Z,9.10
2018-12-30T08:59:24.197Z,9.20
2018-12-30T09:01:31.950Z,9.20
2018-12-30T09:03:39.713Z,9.30
2018-12-30T09:04:43.873Z,9.30
2018-12-30T09:06:52.148Z,9.30
2018-12-30T09:07:56.621Z,9.30
2018-12-30T09:10:06.487Z,9.00
2018-12-30T09:11:10.646Z,9.30
2018-12-30T09:16:28.289Z,9.20
2018-12-30T09:18:35.835Z,9.30
2018-12-30T09:19:40.029Z,9.30
2018-12-30T09:20:44.209Z,9.30
2018-12-30T09:21:48.347Z,9.30
2018-12-30T09:22:52.496Z,9.30
2018-12-30T09:25:00.042Z,9.40
2018-12-30T09:27:07.816Z,9.40
2018-12-30T09:28:11.957Z,9.40
2018-12-30T09:29:16.169Z,9.50
2018-12-30T09:30:20.338Z,9.50
2018-12-30T09:32:27.868Z,9.50
2018-12-30T09:33:32.019Z,9.50
2018-12-30T09:35:39.536Z,9.50
2018-12-30T09:36:43.680Z,9.60
2018-12-30T09:42:02.018Z,9.80
2018-12-30T09:43:06.165Z,9.90
2018-12-30T09:44:10.321Z,9.90
2018-12-30T09:45:14.463Z,9.90
2018-12-30T09:46:18.627Z,10.00
2018-12-30T09:47:22.782Z,10.00
2018-12-30T09:48:33.623Z,10.00
2018-12-30T09:49:33.077Z,10.00
2018-12-30T09:50:37.343Z,10.00
2018-12-30T09:55:55.173Z,10.10
2018-12-30T10:00:09.450Z,10.30
2018-12-30T10:01:13.618Z,10.30
2018-12-30T10:06:31.293Z,10.70
2018-12-30T10:08:38.832Z,10.80
2018-12-30T10:11:49.764Z,10.90
2018-12-30T10:13:57.354Z,10.90
2018-12-30T10:15:09.280Z,10.90
2018-12-30T10:16:07.736Z,10.90
2018-12-30T10:17:11.904Z,10.90
2018-12-30T10:19:20.421Z,10.80
2018-12-30T10:20:25.411Z,10.80
2018-12-30T10:21:29.621Z,10.80
2018-12-30T10:22:34.429Z,10.70
2018-12-30T10:23:38.629Z,10.70
2018-12-30T10:24:43.058Z,10.70
2018-12-30T10:28:57.392Z,10.80
2018-12-30T10:33:13.063Z,11.00
2018-12-30T10:36:24.325Z,11.20
2018-12-30T10:37:28.594Z,11.30
2018-12-30T10:42:46.378Z,11.50
2018-12-30T10:44:53.944Z,11.50
2018-12-30T10:47:02.299Z,11.60
2018-12-30T10:48:06.520Z,11.70
2018-12-30T10:58:43.158Z,11.40
2018-12-30T11:00:50.696Z,11.50
2018-12-30T11:02:58.242Z,11.50
2018-12-30T11:09:19.891Z,11.60
2018-12-30T11:11:28.177Z,11.30
2018-12-30T11:13:35.703Z,11.50
2018-12-30T11:15:43.275Z,11.50
2018-12-30T11:18:54.212Z,11.50
2018-12-30T11:22:06.948Z,11.60
2018-12-30T11:23:11.116Z,11.60
2018-12-30T11:24:15.284Z,11.70
2018-12-30T11:25:19.477Z,11.70
2018-12-30T11:28:30.400Z,11.80
2018-12-30T11:29:34.635Z,11.90
2018-12-30T11:30:38.819Z,12.00
2018-12-30T11:32:46.373Z,12.00
2018-12-30T11:33:50.532Z,12.10
2018-12-30T11:39:08.283Z,12.20
2018-12-30T11:43:23.832Z,12.50
2018-12-30T11:47:38.108Z,12.60
2018-12-30T11:49:45.670Z,12.70
2018-12-30T11:56:07.658Z,12.70
2018-12-30T11:57:11.833Z,12.60
2018-12-30T11:59:19.428Z,12.50
2018-12-30T12:00:23.592Z,12.50
2018-12-30T12:04:37.917Z,12.40
2018-12-30T12:05:42.084Z,12.40
2018-12-30T12:07:49.633Z,12.50
2018-12-30T12:12:03.945Z,12.40
2018-12-30T12:13:08.126Z,12.40
2018-12-30T12:16:19.195Z,12.40
2018-12-30T12:22:40.996Z,12.40
2018-12-30T12:23:45.164Z,12.40
2018-12-30T12:24:49.358Z,12.40
2018-12-30T12:25:53.530Z,12.50
2018-12-30T12:26:57.967Z,12.50
2018-12-30T12:28:02.133Z,12.50
2018-12-30T12:29:06.303Z,12.50
2018-12-30T12:30:10.460Z,12.50
2018-12-30T12:31:14.637Z,12.50
2018-12-30T12:32:18.821Z,12.40
2018-12-30T12:36:34.765Z,12.30
2018-12-30T12:40:49.942Z,12.20
2018-12-30T12:41:54.379Z,12.20
2018-12-30T12:42:58.524Z,12.20
2018-12-30T12:45:06.081Z,12.10
2018-12-30T12:46:10.249Z,12.20
2018-12-30T12:47:14.417Z,12.10
2018-12-30T12:51:28.797Z,12.00
2018-12-30T12:53:36.341Z,12.00
2018-12-30T12:55:43.972Z,11.90
2018-12-30T12:58:56.088Z,11.70
2018-12-30T13:00:00.268Z,11.70
2018-12-30T13:01:04.657Z,11.70
2018-12-30T13:02:08.830Z,11.60
2018-12-30T13:04:16.475Z,11.60
2018-12-30T13:05:20.654Z,11.60
2018-12-30T13:06:24.805Z,11.50
2018-12-30T13:07:28.972Z,11.50
2018-12-30T13:08:33.152Z,11.50
2018-12-30T13:11:44.065Z,11.50
2018-12-30T13:12:48.229Z,11.50
2018-12-30T13:13:52.426Z,11.50
2018-12-30T13:14:56.596Z,11.50
2018-12-30T13:21:17.705Z,11.30
2018-12-30T13:23:25.248Z,11.30
2018-12-30T13:25:32.796Z,11.20
2018-12-30T13:27:40.347Z,11.20
2018-12-30T13:28:44.508Z,11.20
2018-12-30T13:30:52.058Z,11.20
2018-12-30T13:35:06.409Z,11.40
2018-12-30T13:37:14.178Z,11.30
2018-12-30T13:38:18.600Z,11.30
2018-12-30T13:40:26.191Z,11.30
2018-12-30T13:42:34.821Z,11.20
2018-12-30T13:46:49.812Z,11.20
2018-12-30T13:47:53.969Z,10.90
2018-12-30T13:50:01.600Z,11.10
2018-12-30T13:51:05.768Z,11.10
2018-12-30T13:52:09.924Z,11.10
2018-12-30T13:56:24.264Z,11.10
2018-12-30T13:58:31.809Z,11.00
2018-12-30T13:59:35.985Z,11.00
2018-12-30T14:00:40.141Z,11.00
2018-12-30T14:02:47.685Z,11.00
2018-12-30T14:05:58.627Z,10.90
2018-12-30T14:10:13.684Z,10.90
2018-12-30T14:11:18.891Z,10.90
2018-12-30T14:15:33.211Z,10.90
2018-12-30T14:19:47.516Z,10.80
2018-12-30T14:21:55.086Z,10.80
2018-12-30T14:25:06.003Z,10.80
2018-12-30T14:26:10.194Z,10.80
2018-12-30T14:27:14.908Z,10.80
2018-12-30T14:30:26.938Z,10.90
2018-12-30T14:32:34.493Z,10.80
2018-12-30T14:33:38.670Z,10.90
2018-12-30T14:34:42.835Z,10.80
2018-12-30T14:35:48.164Z,10.80
2018-12-30T14:37:55.719Z,10.80
2018-12-30T14:38:59.893Z,10.80
2018-12-30T14:40:04.577Z,10.70
2018-12-30T14:42:12.155Z,10.70
2018-12-30T14:43:16.427Z,10.70
2018-12-30T14:45:24.000Z,10.60
2018-12-30T14:46:33.807Z,10.60
2018-12-30T14:47:34.304Z,10.60
2018-12-30T14:50:45.256Z,10.50
2018-12-30T14:51:49.425Z,10.50
2018-12-30T14:55:03.906Z,10.40
2018-12-30T14:57:09.895Z,10.40
2018-12-30T14:59:17.501Z,10.40
2018-12-30T15:00:21.665Z,10.40
2018-12-30T15:02:29.222Z,10.40
2018-12-30T15:03:33.379Z,10.30
2018-12-30T15:04:37.601Z,10.30
2018-12-30T15:05:41.765Z,10.30
2018-12-30T15:09:57.092Z,10.30
2018-12-30T15:14:11.429Z,10.40
2018-12-30T15:16:19.016Z,10.30
2018-12-30T15:17:23.140Z,10.30
2018-12-30T15:19:30.925Z,10.30
2018-12-30T15:24:48.600Z,10.30
2018-12-30T15:25:53.017Z,10.30
2018-12-30T15:26:57.173Z,10.20
2018-12-30T15:30:08.635Z,10.30
2018-12-30T15:31:12.793Z,10.20
2018-12-30T15:32:16.944Z,10.20
2018-12-30T15:36:31.278Z,10.20
2018-12-30T15:37:35.410Z,10.20
2018-12-30T15:38:39.599Z,10.20
2018-12-30T15:39:43.853Z,10.20
2018-12-30T15:42:54.772Z,10.20
2018-12-30T15:45:02.315Z,10.20
2018-12-30T15:46:06.502Z,10.10
2018-12-30T15:48:14.115Z,10.10
2018-12-30T15:52:28.471Z,10.20
2018-12-30T15:53:32.694Z,10.20
2018-12-30T15:54:36.853Z,10.20
2018-12-30T15:55:41.006Z,10.20
2018-12-30T15:56:45.198Z,10.10
2018-12-30T15:57:49.365Z,10.10
2018-12-30T15:58:53.520Z,10.10
2018-12-30T15:59:57.685Z,10.10
2018-12-30T16:03:08.619Z,10.10
2018-12-30T16:04:12.790Z,10.10
2018-12-30T16:07:23.692Z,10.10
2018-12-30T16:08:27.851Z,10.00
2018-12-30T16:09:32.036Z,10.00
2018-12-30T16:10:36.178Z,10.10
2018-12-30T16:11:40.335Z,10.10
2018-12-30T16:13:47.865Z,10.10
2018-12-30T16:14:52.037Z,10.10
2018-12-30T16:15:56.277Z,10.10
2018-12-30T16:17:00.562Z,10.10
2018-12-30T16:20:12.528Z,10.10
2018-12-30T16:21:16.714Z,10.10
2018-12-30T16:22:20.866Z,10.10
2018-12-30T16:24:28.433Z,10.20
2018-12-30T16:25:32.685Z,10.10
2018-12-30T16:30:50.358Z,10.10
2018-12-30T16:34:01.308Z,10.10
2018-12-30T16:37:12.241Z,10.10
2018-12-30T16:38:16.401Z,10.10
2018-12-30T16:39:20.584Z,10.10
2018-12-30T16:41:28.111Z,10.10
2018-12-30T16:42:32.272Z,10.10
2018-12-30T16:44:39.810Z,10.10
2018-12-30T16:46:47.365Z,10.10
2018-12-30T16:49:58.277Z,10.10
2018-12-30T16:51:02.455Z,10.10
2018-12-30T16:52:06.596Z,10.10
2018-12-30T16:53:11.664Z,10.10
2018-12-30T16:54:16.305Z,10.60
2018-12-30T16:58:31.505Z,10.20
2018-12-30T16:59:35.673Z,10.20
2018-12-30T17:00:39.829Z,10.10
2018-12-30T17:03:50.737Z,10.10
2018-12-30T17:05:58.293Z,10.10
2018-12-30T17:07:02.681Z,10.10
2018-12-30T17:08:06.840Z,10.10
2018-12-30T17:10:14.428Z,10.10
2018-12-30T17:13:25.353Z,10.10
2018-12-30T17:16:36.273Z,10.10
2018-12-30T17:17:40.446Z,10.10
2018-12-30T17:19:47.976Z,10.10
2018-12-30T17:24:02.342Z,10.10
2018-12-30T17:26:11.296Z,10.10
2018-12-30T17:28:19.548Z,10.10
2018-12-30T17:29:23.688Z,10.10
2018-12-30T17:30:27.842Z,10.10
2018-12-30T17:31:32.005Z,10.10
2018-12-30T17:34:42.919Z,9.70
2018-12-30T17:37:53.832Z,10.10
2018-12-30T17:40:01.974Z,10.10
2018-12-30T17:41:06.131Z,10.10
2018-12-30T17:44:17.499Z,10.10
2018-12-30T17:45:22.027Z,10.10
2018-12-30T17:46:26.197Z,10.10
2018-12-30T17:47:30.340Z,10.10
2018-12-30T17:49:38.542Z,10.10
2018-12-30T17:50:42.714Z,10.10
2018-12-30T17:52:50.239Z,10.10
2018-12-30T17:53:54.396Z,10.10
2018-12-30T17:57:05.315Z,10.10
2018-12-30T17:58:09.471Z,10.10
2018-12-30T17:59:13.656Z,10.00
2018-12-30T18:01:21.202Z,10.10
2018-12-30T18:02:25.395Z,10.10
2018-12-30T18:04:32.907Z,10.00
2018-12-30T18:05:37.070Z,10.10
2018-12-30T18:06:41.219Z,10.00
2018-12-30T18:08:48.748Z,10.00
2018-12-30T18:11:59.665Z,10.00
2018-12-30T18:13:03.819Z,10.00
2018-12-30T18:14:07.969Z,10.00
2018-12-30T18:17:18.876Z,10.00
2018-12-30T18:19:26.417Z,10.00
2018-12-30T18:21:33.953Z,10.00
2018-12-30T18:22:38.103Z,10.00
2018-12-30T18:24:45.649Z,10.00
2018-12-30T18:25:49.787Z,10.00
2018-12-30T18:29:01.740Z,10.00
2018-12-30T18:33:18.203Z,10.00
2018-12-30T18:34:22.607Z,10.00
2018-12-30T18:37:33.505Z,10.00
2018-12-30T18:39:41.055Z,10.00
2018-12-30T18:42:51.973Z,10.00
2018-12-30T18:46:02.880Z,10.00
2018-12-30T18:48:10.440Z,10.00
2018-12-30T18:50:17.984Z,10.00
2018-12-30T18:51:22.169Z,10.00
2018-12-30T18:53:30.051Z,10.00
2018-12-30T18:54:35.119Z,10.00
2018-12-30T18:55:39.283Z,10.00
2018-12-30T18:56:43.436Z,10.00
2018-12-30T18:57:47.597Z,10.00
2018-12-30T18:59:55.149Z,10.00
2018-12-30T19:03:06.842Z,10.00
2018-12-30T19:04:11.056Z,10.00
2018-12-30T19:07:21.977Z,10.00
2018-12-30T19:08:26.161Z,10.00
2018-12-30T19:09:30.325Z,10.00
2018-12-30T19:10:34.468Z,10.00
2018-12-30T19:13:45.713Z,9.90
2018-12-30T19:14:50.447Z,9.90
2018-12-30T19:15:55.532Z,10.00
2018-12-30T19:18:03.793Z,10.00
2018-12-30T19:20:11.328Z,10.00
2018-12-30T19:21:15.490Z,10.00
2018-12-30T19:25:29.832Z,9.90
2018-12-30T19:26:34.032Z,10.00
2018-12-30T19:29:44.960Z,10.00
2018-12-30T19:31:52.730Z,10.00
2018-12-30T19:32:56.886Z,10.00
2018-12-30T19:34:01.045Z,9.90
2018-12-30T19:37:11.962Z,10.00
2018-12-30T19:38:16.183Z,9.90
2018-12-30T19:39:20.352Z,10.00
2018-12-30T19:43:34.634Z,9.90
2018-12-30T19:44:38.866Z,10.00
2018-12-30T19:49:56.513Z,9.90
2018-12-30T19:54:11.333Z,10.00
2018-12-30T19:55:15.484Z,10.00
2018-12-30T19:56:22.111Z,9.90
2018-12-30T19:57:25.945Z,10.00
2018-12-30T20:02:43.593Z,10.00
2018-12-30T20:03:47.754Z,10.00
2018-12-30T20:09:06.332Z,9.90
2018-12-30T20:10:10.540Z,9.90
2018-12-30T20:15:28.148Z,10.00
2018-12-30T20:16:32.309Z,10.00
2018-12-30T20:17:36.475Z,10.00
2018-12-30T20:18:40.634Z,10.00
2018-12-30T20:20:48.406Z,10.00
2018-12-30T20:22:55.920Z,9.90
2018-12-30T20:24:00.081Z,9.90
2018-12-30T20:26:07.605Z,9.90
2018-12-30T20:32:28.633Z,9.90
2018-12-30T20:33:32.779Z,9.90
2018-12-30T20:37:47.164Z,9.90
2018-12-30T20:39:55.566Z,9.90
2018-12-30T20:40:59.763Z,9.90
2018-12-30T20:43:07.285Z,9.90
2018-12-30T20:44:11.489Z,9.90
2018-12-30T20:46:19.062Z,9.90
2018-12-30T20:47:23.445Z,9.90
2018-12-30T20:48:27.596Z,9.90
2018-12-30T20:50:35.108Z,9.90
2018-12-30T20:57:03.077Z,9.80
2018-12-30T20:59:10.605Z,9.90
2018-12-30T21:04:28.239Z,9.90
2018-12-30T21:05:32.425Z,9.90
2018-12-30T21:06:36.818Z,9.90
2018-12-30T21:07:41.901Z,9.90
2018-12-30T21:08:46.231Z,9.90
2018-12-30T21:10:53.729Z,9.90
2018-12-30T21:13:01.244Z,9.90
2018-12-30T21:14:05.418Z,9.90
2018-12-30T21:19:24.255Z,9.90
2018-12-30T21:20:29.337Z,9.90
2018-12-30T21:23:40.258Z,9.90
2018-12-30T21:27:54.517Z,10.00
2018-12-30T21:28:58.672Z,9.90
2018-12-30T21:32:09.724Z,10.00
2018-12-30T21:35:20.601Z,10.00
2018-12-30T21:37:28.137Z,9.90
2018-12-30T21:38:32.280Z,10.00
2018-12-30T21:41:43.192Z,10.00
2018-12-30T21:42:47.358Z,10.00
2018-12-30T21:43:51.505Z,9.90
2018-12-30T21:44:55.669Z,10.00
2018-12-30T21:45:59.897Z,9.90
2018-12-30T21:47:04.235Z,10.00
2018-12-30T21:50:15.152Z,10.00
2018-12-30T21:51:19.392Z,10.00
2018-12-30T21:53:26.914Z,9.90
2018-12-30T21:54:31.060Z,10.00
2018-12-30T21:56:38.587Z,9.90
2018-12-30T21:57:42.757Z,10.00
2018-12-30T22:00:53.687Z,10.00
2018-12-30T22:01:57.851Z,10.00
2018-12-30T22:04:05.645Z,10.00
2018-12-30T22:05:09.792Z,10.00
2018-12-30T22:06:13.952Z,10.00
2018-12-30T22:08:21.480Z,10.00
2018-12-30T22:10:29.017Z,10.00
2018-12-30T22:11:33.177Z,10.00
2018-12-30T22:15:47.460Z,10.00
2018-12-30T22:17:54.988Z,10.00
2018-12-30T22:18:59.489Z,10.00
2018-12-30T22:20:04.092Z,10.00
2018-12-30T22:22:11.635Z,10.00
2018-12-30T22:26:26.190Z,10.00
2018-12-30T22:27:30.349Z,10.00
2018-12-30T22:29:37.872Z,10.00
2018-12-30T22:31:45.419Z,10.00
2018-12-30T22:32:49.562Z,10.00
2018-12-30T22:34:57.609Z,10.00
2018-12-30T22:37:05.147Z,10.00
2018-12-30T22:38:11.057Z,10.00
2018-12-30T22:39:15.516Z,10.00
2018-12-30T22:40:19.700Z,10.00
2018-12-30T22:41:23.900Z,10.00
2018-12-30T22:42:32.671Z,10.00
2018-12-30T22:45:40.939Z,10.00
2018-12-30T22:46:45.091Z,10.00
2018-12-30T22:47:49.252Z,10.00
2018-12-30T22:48:53.442Z,10.00
2018-12-30T22:51:01.033Z,10.00
2018-12-30T22:53:08.552Z,10.00
2018-12-30T22:57:22.849Z,10.00
2018-12-30T23:00:33.797Z,10.00
2018-12-30T23:01:38.186Z,10.00
2018-12-30T23:02:42.328Z,10.00
2018-12-30T23:04:49.856Z,10.00
2018-12-30T23:06:57.402Z,10.00
2018-12-30T23:08:01.641Z,10.00
2018-12-30T23:09:06.056Z,10.00
2018-12-30T23:10:10.199Z,10.00
2018-12-30T23:13:21.128Z,10.00
2018-12-30T23:18:39.804Z,10.00
2018-12-30T23:19:44.009Z,10.00
2018-12-30T23:22:54.924Z,10.00
2018-12-30T23:23:59.089Z,10.00
2018-12-30T23:26:06.985Z,10.00
2018-12-30T23:27:11.153Z,10.00
2018-12-30T23:28:15.323Z,10.00
2018-12-30T23:30:23.974Z,10.00
2018-12-30T23:31:28.118Z,10.00
2018-12-30T23:32:32.272Z,10.00
2018-12-30T23:33:36.424Z,10.00
2018-12-30T23:34:40.587Z,10.00
2018-12-30T23:39:58.290Z,10.00
2018-12-30T23:44:12.560Z,10.00
2018-12-30T23:46:20.137Z,10.00
2018-12-30T23:49:31.048Z,10.00
2018-12-30T23:50:35.307Z,10.00
2018-12-30T23:52:42.841Z,10.00
2018-12-30T23:53:47.083Z,10.00
2018-12-30T23:54:51.265Z,10.00
2018-12-30T23:55:55.421Z,10.00
2018-12-30T23:56:59.584Z,10.00
2018-12-30T23:58:03.726Z,10.00
